Time;durP1;ratioP1;P1;durP2;ratioP2;P2;SDS_P1;SDS_P2;PMS_P1;PMS_P2;Temp;Humidity;BMP_temperature;BMP_pressure;BME280_temperature;BME280_humidity;BME280_pressure;Samples;Min_cycle;Max_cycle;Signal;HPM_P1;HPM_P2
2022/06/25 00:00:52;;;;;;;2.42;0.85;;;15.80;99.90;;;;;;5040628;28;20190;-78
2022/06/25 00:03:23;;;;;;;2.70;0.85;;;15.90;99.90;;;;;;5037842;28;20216;-77
2022/06/25 00:05:54;;;;;;;1.13;0.90;;;15.90;99.90;;;;;;5033677;28;20201;-77
2022/06/25 00:08:25;;;;;;;2.60;0.80;;;16.10;99.90;;;;;;5035649;28;20203;-75
2022/06/25 00:10:55;;;;;;;3.25;0.65;;;16.20;99.90;;;;;;5047272;28;20202;-76
2022/06/25 00:13:27;;;;;;;1.23;0.68;;;16.20;99.90;;;;;;5033995;28;20712;-74
2022/06/25 00:15:58;;;;;;;3.45;1.00;;;16.20;99.90;;;;;;5034491;28;20194;-80
2022/06/25 00:18:29;;;;;;;1.17;0.73;;;16.30;99.90;;;;;;5046144;28;20564;-77
2022/06/25 00:20:59;;;;;;;6.55;0.93;;;16.40;99.90;;;;;;5034192;28;20202;-76
2022/06/25 00:23:30;;;;;;;2.25;1.10;;;16.40;99.90;;;;;;5041105;28;20202;-75
2022/06/25 00:26:01;;;;;;;2.42;1.13;;;16.50;99.90;;;;;;5038838;28;20201;-76
2022/06/25 00:28:33;;;;;;;2.45;1.27;;;16.60;99.90;;;;;;5033475;28;20213;-81
2022/06/25 00:31:04;;;;;;;4.78;1.20;;;16.70;99.90;;;;;;5032175;28;20684;-79
2022/06/25 00:33:34;;;;;;;1.88;0.90;;;16.80;99.90;;;;;;5037916;28;20677;-75
2022/06/25 00:36:05;;;;;;;1.00;0.80;;;16.90;99.90;;;;;;5045180;28;20828;-75
2022/06/25 00:38:36;;;;;;;3.05;0.98;;;16.90;99.90;;;;;;5036594;28;20561;-79
2022/06/25 00:41:07;;;;;;;6.22;4.78;;;17.00;99.90;;;;;;5034615;28;20202;-75
2022/06/25 00:43:43;;;;;;;4.75;2.17;;;17.10;99.90;;;;;;5028079;28;20198;-75
2022/06/25 00:46:14;;;;;;;2.95;1.30;;;17.20;99.90;;;;;;5031993;28;20205;-77
2022/06/25 00:48:45;;;;;;;4.68;1.27;;;17.30;99.90;;;;;;5033683;28;20204;-76
2022/06/25 00:51:17;;;;;;;2.83;1.00;;;17.40;99.90;;;;;;5034534;28;20216;-83
2022/06/25 00:53:49;;;;;;;1.88;1.13;;;17.50;99.90;;;;;;5052445;28;20236;-74
2022/06/25 00:56:22;;;;;;;3.60;1.10;;;17.50;99.90;;;;;;5039716;28;20224;-76
2022/06/25 00:58:59;;;;;;;2.35;1.05;;;17.60;99.90;;;;;;5038786;28;20206;-74
2022/06/25 01:01:30;;;;;;;2.40;0.80;;;17.70;99.90;;;;;;5037148;28;20190;-78
2022/06/25 01:04:01;;;;;;;1.35;0.85;;;17.80;99.90;;;;;;5054102;28;20190;-79
2022/06/25 01:06:32;;;;;;;1.77;0.70;;;17.80;99.90;;;;;;5038512;28;20209;-77
2022/06/25 01:09:03;;;;;;;2.15;1.00;;;17.90;99.90;;;;;;5032344;28;20221;-77
2022/06/25 01:11:33;;;;;;;3.17;1.10;;;17.90;99.90;;;;;;5030932;28;20260;-78
2022/06/25 01:14:10;;;;;;;2.00;0.82;;;18.00;99.90;;;;;;5036751;28;20201;-77
2022/06/25 01:16:41;;;;;;;2.38;1.00;;;18.00;99.90;;;;;;5031846;28;20687;-77
2022/06/25 01:19:13;;;;;;;3.20;1.02;;;18.10;99.90;;;;;;5034900;28;20198;-79
2022/06/25 01:21:44;;;;;;;2.45;0.98;;;18.20;99.90;;;;;;5034669;28;20197;-76
2022/06/25 01:24:17;;;;;;;2.35;0.93;;;18.20;99.90;;;;;;5032244;28;20194;-78
2022/06/25 01:26:47;;;;;;;1.38;0.80;;;18.50;99.90;;;;;;5035192;28;20190;-77
2022/06/25 01:29:18;;;;;;;1.35;0.70;;;18.50;99.90;;;;;;5025764;28;20198;-77
2022/06/25 01:31:49;;;;;;;1.77;0.98;;;18.60;99.90;;;;;;5038132;28;20673;-78
2022/06/25 01:34:20;;;;;;;2.15;1.00;;;18.60;99.90;;;;;;5025391;28;20222;-77
2022/06/25 01:36:50;;;;;;;1.70;0.77;;;18.60;99.90;;;;;;5041545;28;20690;-77
2022/06/25 01:39:23;;;;;;;0.70;0.70;;;18.70;99.90;;;;;;5033926;28;20190;-77
2022/06/25 01:41:53;;;;;;;1.30;0.70;;;18.80;99.90;;;;;;5035228;28;20201;-81
2022/06/25 01:44:24;;;;;;;2.13;0.80;;;18.90;99.90;;;;;;5032139;28;20248;-78
2022/06/25 01:46:55;;;;;;;1.63;0.77;;;18.90;99.90;;;;;;5034741;28;20650;-78
2022/06/25 01:49:25;;;;;;;2.97;0.82;;;19.00;99.90;;;;;;5031784;28;20657;-77
2022/06/25 01:51:56;;;;;;;1.23;0.88;;;19.10;99.90;;;;;;5032861;28;20656;-78
2022/06/25 01:54:28;;;;;;;2.03;0.80;;;19.10;99.90;;;;;;5019401;28;20202;-77
2022/06/25 01:56:59;;;;;;;1.95;0.98;;;19.20;99.90;;;;;;5033319;28;20202;-76
2022/06/25 01:59:30;;;;;;;2.17;0.70;;;19.20;99.90;;;;;;5041520;28;20197;-76
2022/06/25 02:02:01;;;;;;;1.42;0.60;;;19.20;99.90;;;;;;5032767;28;20645;-77
2022/06/25 02:04:31;;;;;;;1.38;1.00;;;19.20;99.90;;;;;;5032822;28;20229;-77
2022/06/25 02:07:02;;;;;;;3.00;1.50;;;19.20;99.90;;;;;;5032733;28;20807;-77
2022/06/25 02:09:34;;;;;;;1.35;0.85;;;19.20;99.90;;;;;;5032917;28;20190;-77
2022/06/25 02:12:05;;;;;;;1.48;0.88;;;19.30;99.90;;;;;;5036240;28;20225;-77
2022/06/25 02:14:36;;;;;;;2.80;0.90;;;19.30;99.90;;;;;;5052605;28;20190;-77
2022/06/25 02:17:07;;;;;;;2.15;1.00;;;19.30;99.90;;;;;;5036128;28;20198;-78
2022/06/25 02:19:38;;;;;;;2.67;1.05;;;19.40;99.90;;;;;;5042293;28;20217;-76
2022/06/25 02:22:14;;;;;;;2.75;1.30;;;19.50;99.90;;;;;;5038203;28;20657;-77
2022/06/25 02:24:47;;;;;;;2.78;1.10;;;19.50;99.90;;;;;;5037018;28;20207;-77
2022/06/25 02:27:18;;;;;;;2.22;1.10;;;19.60;99.90;;;;;;5048608;28;20212;-76
2022/06/25 02:29:48;;;;;;;2.15;1.10;;;19.60;99.90;;;;;;5038509;28;20221;-77
2022/06/25 02:32:19;;;;;;;3.95;1.10;;;19.70;99.90;;;;;;5031974;28;20202;-76
2022/06/25 02:34:49;;;;;;;2.83;0.93;;;19.70;99.90;;;;;;5037125;28;20225;-77
2022/06/25 02:37:20;;;;;;;1.83;1.02;;;19.70;99.90;;;;;;5032769;28;20245;-78
2022/06/25 02:39:53;;;;;;;3.20;0.90;;;19.70;99.90;;;;;;5032141;28;20198;-78
2022/06/25 02:42:24;;;;;;;1.42;0.75;;;19.70;99.90;;;;;;5032350;28;20202;-77
2022/06/25 02:44:54;;;;;;;2.88;0.80;;;19.80;99.90;;;;;;5052239;28;20194;-80
2022/06/25 02:47:25;;;;;;;3.28;0.70;;;19.60;99.90;;;;;;5052781;28;20190;-78
2022/06/25 02:49:55;;;;;;;1.92;0.90;;;19.60;99.90;;;;;;5039125;28;20193;-79
2022/06/25 02:52:26;;;;;;;1.63;0.88;;;19.50;99.90;;;;;;5032379;28;20186;-78
2022/06/25 02:54:59;;;;;;;1.42;0.80;;;19.60;99.90;;;;;;5032784;28;20601;-77
2022/06/25 03:00:14;;;;;;;2.75;1.23;;;19.80;99.90;;;;;;5006829;28;20213;-78
2022/06/25 03:02:45;;;;;;;1.00;0.63;;;19.90;99.90;;;;;;5023588;28;20289;-79
2022/06/25 03:05:15;;;;;;;2.50;0.60;;;19.90;99.90;;;;;;5017236;28;20190;-78
2022/06/25 03:07:46;;;;;;;1.15;0.50;;;20.00;99.90;;;;;;5036108;28;20203;-77
2022/06/25 03:10:19;;;;;;;1.50;0.60;;;20.10;99.90;;;;;;5036639;28;20221;-78
2022/06/25 03:12:49;;;;;;;1.20;0.70;;;20.10;99.90;;;;;;5038568;28;20210;-81
2022/06/25 03:15:20;;;;;;;1.48;0.50;;;20.20;99.90;;;;;;5035332;28;20206;-78
2022/06/25 03:17:51;;;;;;;1.15;0.50;;;20.20;99.90;;;;;;5036115;28;20216;-78
2022/06/25 03:20:22;;;;;;;2.85;0.65;;;20.20;99.90;;;;;;5039419;28;20209;-80
2022/06/25 03:22:52;;;;;;;1.58;0.40;;;20.10;99.90;;;;;;5022731;28;20285;-81
2022/06/25 03:25:25;;;;;;;0.73;0.40;;;20.10;99.90;;;;;;5034609;28;20198;-80
2022/06/25 03:27:55;;;;;;;1.20;0.60;;;20.10;99.90;;;;;;5024229;28;20198;-77
2022/06/25 03:30:26;;;;;;;1.55;0.40;;;20.00;99.90;;;;;;5047200;28;20209;-79
2022/06/25 03:32:57;;;;;;;3.50;0.60;;;19.90;99.90;;;;;;5035014;28;20221;-78
2022/06/25 03:35:27;;;;;;;2.42;0.70;;;19.90;99.90;;;;;;5041898;28;20252;-78
2022/06/25 03:37:58;;;;;;;1.00;0.52;;;19.90;99.90;;;;;;5035404;28;20562;-78
2022/06/25 03:40:31;;;;;;;1.10;0.70;;;19.90;99.90;;;;;;5038530;28;20189;-80
2022/06/25 03:43:01;;;;;;;0.50;0.50;;;19.70;99.90;;;;;;5035180;28;20289;-78
2022/06/25 03:45:32;;;;;;;0.65;0.60;;;19.50;99.90;;;;;;5039410;28;20201;-81
2022/06/25 03:48:03;;;;;;;2.45;0.68;;;19.40;99.90;;;;;;5045167;28;20537;-79
2022/06/25 03:50:34;;;;;;;0.85;0.50;;;19.40;99.90;;;;;;5032166;28;20677;-82
2022/06/25 03:53:04;;;;;;;1.23;0.60;;;19.50;99.90;;;;;;5036378;28;20300;-82
2022/06/25 03:55:37;;;;;;;1.58;0.60;;;19.60;99.90;;;;;;5040467;28;20545;-78
2022/06/25 03:58:08;;;;;;;1.40;0.50;;;19.70;99.90;;;;;;5035141;28;20198;-78
2022/06/25 04:00:38;;;;;;;1.25;0.60;;;19.70;99.90;;;;;;5034217;28;20202;-77
2022/06/25 04:03:09;;;;;;;0.43;0.43;;;19.70;99.90;;;;;;5033886;28;20564;-79
2022/06/25 04:05:40;;;;;;;1.77;0.40;;;19.80;99.90;;;;;;5034986;28;20198;-79
2022/06/25 04:08:10;;;;;;;1.88;0.60;;;19.90;99.90;;;;;;5037069;28;20198;-78
2022/06/25 04:10:43;;;;;;;1.15;0.50;;;19.80;99.90;;;;;;5028346;28;20645;-79
2022/06/25 04:13:14;;;;;;;1.63;0.50;;;19.90;99.90;;;;;;5041650;28;20221;-78
2022/06/25 04:15:45;;;;;;;1.40;0.60;;;19.90;99.90;;;;;;5034556;28;20191;-80
2022/06/25 04:18:16;;;;;;;1.63;0.43;;;19.90;99.90;;;;;;5044201;28;20186;-78
2022/06/25 04:20:46;;;;;;;0.47;0.30;;;20.00;99.90;;;;;;5043206;28;20213;-77
2022/06/25 04:23:17;;;;;;;1.08;0.60;;;20.00;99.90;;;;;;5044896;28;20209;-78
2022/06/25 04:25:49;;;;;;;0.80;0.50;;;20.00;99.90;;;;;;5032826;28;20220;-78
2022/06/25 04:31:07;;;;;;;1.63;0.45;;;19.90;99.90;;;;;;5035716;28;20205;-79
2022/06/25 04:33:38;;;;;;;1.58;0.65;;;19.90;99.90;;;;;;5041806;28;20236;-79
2022/06/25 04:36:08;;;;;;;0.50;0.30;;;19.90;99.90;;;;;;5039571;28;20600;-79
2022/06/25 04:38:39;;;;;;;0.80;0.40;;;20.00;99.90;;;;;;5033677;28;20198;-79
2022/06/25 04:41:11;;;;;;;0.90;0.40;;;20.00;99.90;;;;;;5033244;28;20190;-79
2022/06/25 04:43:42;;;;;;;0.45;0.40;;;19.90;99.90;;;;;;5033649;28;20214;-79
2022/06/25 04:46:13;;;;;;;0.52;0.40;;;20.00;99.90;;;;;;5045594;28;20197;-78
2022/06/25 04:48:43;;;;;;;0.52;0.40;;;19.90;99.90;;;;;;5036982;28;20194;-79
2022/06/25 04:51:14;;;;;;;0.52;0.40;;;19.80;99.90;;;;;;5035570;28;20205;-80
2022/06/25 04:53:57;;;;;;;1.20;0.40;;;19.80;99.90;;;;;;5034153;28;20214;-78
2022/06/25 04:56:31;;;;;;;1.75;0.50;;;19.80;99.90;;;;;;5040859;28;20202;-78
2022/06/25 04:59:02;;;;;;;1.27;0.57;;;19.80;99.90;;;;;;5042648;28;20197;-78
2022/06/25 05:01:32;;;;;;;0.52;0.40;;;19.80;99.90;;;;;;5038621;28;20201;-78
2022/06/25 05:04:03;;;;;;;0.57;0.40;;;19.70;99.90;;;;;;5046862;28;20198;-79
2022/06/25 05:06:33;;;;;;;1.20;0.70;;;19.70;99.90;;;;;;5038758;28;20202;-78
2022/06/25 05:09:04;;;;;;;0.80;0.50;;;19.70;99.90;;;;;;5035524;28;20684;-78
2022/06/25 05:11:37;;;;;;;0.80;0.43;;;19.60;99.90;;;;;;5029055;28;20201;-78
2022/06/25 05:14:07;;;;;;;1.88;0.60;;;19.60;99.90;;;;;;5034130;28;20222;-79
2022/06/25 05:16:38;;;;;;;2.60;0.57;;;19.60;99.90;;;;;;5040596;28;20247;-77
2022/06/25 05:19:09;;;;;;;0.57;0.50;;;19.60;99.90;;;;;;5038888;28;20243;-78
2022/06/25 05:21:39;;;;;;;1.90;0.60;;;19.50;99.90;;;;;;5041987;28;20182;-78
2022/06/25 05:24:10;;;;;;;1.15;0.50;;;19.50;99.90;;;;;;5045360;28;20182;-79
2022/06/25 05:26:43;;;;;;;1.80;0.50;;;19.60;99.90;;;;;;5049053;28;20193;-78
2022/06/25 05:29:13;;;;;;;0.73;0.40;;;19.60;99.90;;;;;;5043333;28;20186;-78
2022/06/25 05:31:44;;;;;;;1.08;0.50;;;19.70;99.90;;;;;;5038259;28;20209;-79
2022/06/25 05:34:15;;;;;;;1.55;0.60;;;19.60;99.90;;;;;;5041897;28;20284;-79
2022/06/25 05:36:45;;;;;;;0.80;0.45;;;19.60;99.90;;;;;;5039488;28;20284;-80
2022/06/25 05:39:16;;;;;;;0.40;0.40;;;19.50;99.90;;;;;;5042272;28;20190;-80
2022/06/25 05:41:49;;;;;;;1.33;0.40;;;19.50;99.90;;;;;;5041793;28;20542;-80
2022/06/25 05:44:19;;;;;;;1.33;0.50;;;19.50;99.90;;;;;;5041686;28;20193;-79
2022/06/25 05:46:50;;;;;;;0.40;0.40;;;19.50;99.90;;;;;;5041075;28;20588;-83
2022/06/25 05:49:20;;;;;;;1.73;0.30;;;19.50;99.90;;;;;;5040130;28;20194;-80
2022/06/25 05:51:51;;;;;;;2.45;0.40;;;19.50;99.90;;;;;;5044322;28;20284;-81
2022/06/25 05:54:22;;;;;;;0.35;0.30;;;19.40;99.90;;;;;;5047150;28;20253;-80
2022/06/25 05:56:54;;;;;;;2.17;0.30;;;19.30;99.90;;;;;;5043872;28;20185;-79
2022/06/25 05:59:25;;;;;;;0.30;0.30;;;19.20;99.90;;;;;;5040472;28;20544;-79
2022/06/25 06:01:56;;;;;;;0.35;0.30;;;19.10;99.90;;;;;;5044390;28;20185;-78
2022/06/25 06:04:26;;;;;;;1.58;0.43;;;19.10;99.90;;;;;;5045126;28;20288;-78
2022/06/25 06:06:59;;;;;;;3.28;0.63;;;19.00;99.90;;;;;;5040111;28;20193;-79
2022/06/25 06:09:31;;;;;;;1.85;0.45;;;19.00;99.90;;;;;;5042469;28;20190;-78
2022/06/25 06:12:04;;;;;;;1.38;0.30;;;18.80;99.90;;;;;;5041786;28;20189;-79
2022/06/25 06:14:35;;;;;;;1.05;0.35;;;18.70;99.90;;;;;;5044312;28;20226;-80
2022/06/25 06:17:06;;;;;;;1.05;0.40;;;18.70;99.90;;;;;;5041135;28;20187;-79
2022/06/25 06:19:36;;;;;;;0.70;0.50;;;18.60;99.90;;;;;;5036688;28;20198;-78
2022/06/25 06:22:07;;;;;;;1.80;0.60;;;18.50;99.90;;;;;;5046620;28;20185;-78
2022/06/25 06:24:38;;;;;;;0.90;0.60;;;18.50;99.90;;;;;;5045683;28;20208;-78
2022/06/25 06:27:11;;;;;;;2.10;0.65;;;18.50;99.90;;;;;;5040867;28;20185;-78
2022/06/25 06:29:41;;;;;;;1.30;0.70;;;18.50;99.90;;;;;;5041658;28;20316;-78
2022/06/25 06:32:12;;;;;;;1.70;0.60;;;18.50;99.90;;;;;;5042805;28;20186;-79
2022/06/25 06:34:43;;;;;;;2.22;0.80;;;18.50;99.90;;;;;;5039208;28;20230;-79
2022/06/25 06:37:14;;;;;;;1.83;0.90;;;18.50;99.90;;;;;;5042005;28;20320;-78
2022/06/25 06:39:45;;;;;;;3.10;1.45;;;18.40;99.90;;;;;;5042618;28;20190;-77
2022/06/25 06:42:17;;;;;;;4.32;1.30;;;18.40;99.90;;;;;;5050118;28;20197;-77
2022/06/25 06:44:48;;;;;;;3.47;1.20;;;18.30;99.90;;;;;;5041155;28;20197;-78
2022/06/25 06:47:19;;;;;;;2.72;1.20;;;18.20;99.90;;;;;;5047082;28;20202;-77
2022/06/25 06:49:49;;;;;;;2.75;1.13;;;18.10;99.90;;;;;;5042956;28;20201;-78
2022/06/25 06:52:20;;;;;;;1.63;1.00;;;18.00;99.90;;;;;;5041114;28;20229;-78
2022/06/25 06:54:51;;;;;;;0.80;0.70;;;17.90;99.90;;;;;;5040869;28;20222;-78
2022/06/25 06:57:24;;;;;;;1.30;0.98;;;17.80;99.90;;;;;;5042432;28;20197;-79
2022/06/25 06:59:54;;;;;;;2.05;1.33;;;17.70;99.90;;;;;;5039268;28;20268;-79
2022/06/25 07:02:25;;;;;;;2.33;1.50;;;17.70;99.90;;;;;;5039460;28;20220;-78
2022/06/25 07:04:56;;;;;;;2.67;1.65;;;17.60;99.90;;;;;;5038680;28;20261;-78
2022/06/25 07:07:27;;;;;;;3.15;1.60;;;17.50;99.90;;;;;;5040494;28;20718;-79
2022/06/25 07:09:57;;;;;;;2.00;1.30;;;17.40;99.90;;;;;;5036159;28;20202;-78
2022/06/25 07:12:30;;;;;;;2.17;1.40;;;17.30;99.90;;;;;;5040542;28;20201;-77
2022/06/25 07:15:00;;;;;;;1.45;1.15;;;17.20;99.90;;;;;;5040413;28;20217;-78
2022/06/25 07:17:31;;;;;;;1.83;1.10;;;17.10;99.90;;;;;;5044900;28;20194;-78
2022/06/25 07:20:02;;;;;;;2.33;1.42;;;17.00;99.90;;;;;;5042979;28;20794;-77
2022/06/25 07:22:32;;;;;;;1.92;1.20;;;16.90;99.90;;;;;;5045973;28;20560;-78
2022/06/25 07:25:03;;;;;;;2.60;1.40;;;16.80;99.90;;;;;;5044474;28;20193;-78
2022/06/25 07:27:36;;;;;;;3.15;1.17;;;16.70;99.90;;;;;;5044660;28;20197;-78
2022/06/25 07:30:07;;;;;;;3.95;1.20;;;16.70;99.90;;;;;;5044087;28;20194;-77
2022/06/25 07:32:37;;;;;;;6.82;1.75;;;16.60;99.90;;;;;;5039105;28;20664;-77
2022/06/25 07:35:09;;;;;;;3.88;1.63;;;16.50;99.90;;;;;;5040579;28;20241;-79
2022/06/25 07:37:41;;;;;;;2.70;1.48;;;16.40;99.90;;;;;;5044865;28;20221;-77
2022/06/25 07:40:13;;;;;;;3.70;1.80;;;16.30;99.90;;;;;;5045432;28;20196;-78
2022/06/25 07:42:45;;;;;;;2.95;1.60;;;16.20;99.90;;;;;;5046988;28;20186;-78
2022/06/25 07:45:16;;;;;;;3.95;2.00;;;16.10;99.90;;;;;;5042708;28;20197;-81
2022/06/25 07:47:46;;;;;;;2.85;2.10;;;15.90;99.90;;;;;;5047214;28;20212;-78
2022/06/25 07:53:04;;;;;;;3.80;2.50;;;15.60;99.90;;;;;;5052071;28;20200;-78
2022/06/25 07:55:34;;;;;;;5.28;2.20;;;15.50;99.90;;;;;;5049268;28;20221;-78
2022/06/25 07:58:07;;;;;;;3.30;2.10;;;15.40;99.90;;;;;;5045983;28;20194;-78
2022/06/25 08:00:37;;;;;;;3.10;2.20;;;15.30;99.90;;;;;;5039791;28;20573;-79
2022/06/25 08:03:08;;;;;;;3.90;2.55;;;15.20;99.90;;;;;;5050486;28;20190;-78
2022/06/25 08:05:39;;;;;;;3.83;2.40;;;15.20;99.90;;;;;;5045143;28;20208;-78
2022/06/25 08:08:09;;;;;;;4.68;2.60;;;15.20;99.90;;;;;;5045064;28;20193;-78
2022/06/25 08:10:40;;;;;;;5.50;3.00;;;15.20;99.90;;;;;;5042948;28;20191;-77
2022/06/25 08:13:13;;;;;;;5.60;3.10;;;15.20;99.90;;;;;;5043073;28;20190;-77
2022/06/25 08:15:43;;;;;;;5.47;2.47;;;15.20;99.90;;;;;;5038649;28;20218;-77
2022/06/25 08:18:14;;;;;;;5.82;3.03;;;15.20;99.90;;;;;;5028955;28;20190;-78
2022/06/25 08:20:45;;;;;;;6.53;3.58;;;15.20;99.90;;;;;;5040142;28;20186;-77
2022/06/25 08:23:16;;;;;;;7.68;3.35;;;15.10;99.90;;;;;;5044660;28;20213;-77
2022/06/25 08:25:46;;;;;;;8.35;3.60;;;15.10;99.90;;;;;;5045771;28;20193;-77
2022/06/25 08:28:19;;;;;;;8.95;3.70;;;15.20;99.90;;;;;;5041279;28;20197;-78
2022/06/25 08:30:50;;;;;;;5.13;3.20;;;15.20;99.90;;;;;;5042583;28;20214;-77
2022/06/25 08:33:20;;;;;;;4.93;3.05;;;15.20;99.90;;;;;;5034557;28;20229;-77
2022/06/25 08:35:52;;;;;;;7.43;3.47;;;15.20;99.90;;;;;;5041047;28;20206;-79
2022/06/25 08:38:23;;;;;;;9.25;3.30;;;15.20;99.90;;;;;;5048744;28;20222;-78
2022/06/25 08:40:59;;;;;;;6.28;3.30;;;15.20;99.90;;;;;;5048126;28;20186;-77
2022/06/25 08:43:31;;;;;;;5.40;3.40;;;15.10;99.90;;;;;;5044242;28;20597;-77
2022/06/25 08:46:02;;;;;;;8.48;3.70;;;15.20;99.90;;;;;;5043052;28;20193;-78
2022/06/25 08:48:36;;;;;;;7.28;3.72;;;15.10;99.90;;;;;;5043342;28;20190;-77
2022/06/25 08:51:09;;;;;;;6.82;3.53;;;15.10;99.90;;;;;;5044805;28;20196;-77
2022/06/25 08:53:40;;;;;;;5.88;3.55;;;15.20;99.90;;;;;;5045550;28;20641;-79
2022/06/25 08:56:11;;;;;;;7.35;3.42;;;15.10;99.90;;;;;;5049047;28;20216;-77
2022/06/25 08:58:46;;;;;;;5.20;3.45;;;15.10;99.90;;;;;;5044558;28;20204;-77
2022/06/25 09:01:17;;;;;;;6.25;3.30;;;15.20;99.90;;;;;;5028284;28;20193;-77
2022/06/25 09:03:47;;;;;;;6.22;3.60;;;15.20;99.90;;;;;;5045466;28;20189;-77
2022/06/25 09:06:19;;;;;;;6.65;3.50;;;15.10;99.90;;;;;;5039160;28;20190;-77
2022/06/25 09:09:10;;;;;;;7.00;3.65;;;15.00;99.90;;;;;;5042519;28;20197;-77
2022/06/25 09:11:56;;;;;;;4.72;2.90;;;14.80;99.90;;;;;;5041878;28;20277;-77
2022/06/25 09:14:30;;;;;;;5.50;3.50;;;14.70;99.90;;;;;;5046338;28;20543;-77
2022/06/25 09:17:04;;;;;;;6.07;3.70;;;14.50;99.90;;;;;;5045113;28;20189;-78
2022/06/25 09:19:36;;;;;;;8.55;5.20;;;14.40;99.90;;;;;;5042058;28;20194;-77
2022/06/25 09:22:08;;;;;;;7.95;5.07;;;14.20;99.90;;;;;;5044445;28;20197;-77
2022/06/25 09:24:53;;;;;;;8.93;4.63;;;14.20;99.90;;;;;;5043151;28;20232;-77
2022/06/25 09:27:37;;;;;;;9.38;5.40;;;14.10;99.90;;;;;;5039565;28;20308;-77
2022/06/25 09:30:16;;;;;;;10.15;5.80;;;14.10;99.90;;;;;;5048137;28;20213;-76
2022/06/25 09:32:47;;;;;;;12.05;6.43;;;14.00;99.90;;;;;;5042819;28;20220;-77
2022/06/25 09:35:29;;;;;;;12.88;7.35;;;13.90;99.90;;;;;;5043273;28;20297;-78
2022/06/25 09:38:06;;;;;;;11.48;7.13;;;13.90;99.90;;;;;;5043363;28;20225;-77
2022/06/25 09:40:38;;;;;;;10.40;6.88;;;13.90;99.90;;;;;;5042198;28;20185;-77
2022/06/25 09:43:16;;;;;;;14.38;7.07;;;13.90;99.90;;;;;;5044244;28;20197;-77
2022/06/25 09:45:49;;;;;;;13.55;7.03;;;13.90;99.90;;;;;;5046894;28;20193;-76
2022/06/25 09:48:25;;;;;;;15.43;8.00;;;13.80;99.90;;;;;;5041734;28;20193;-77
2022/06/25 09:51:13;;;;;;;12.57;7.28;;;13.80;99.90;;;;;;5042987;28;20193;-77
2022/06/25 09:53:54;;;;;;;13.02;7.78;;;13.80;99.90;;;;;;5041095;28;20186;-77
2022/06/25 09:56:26;;;;;;;10.98;7.32;;;13.80;99.90;;;;;;5041279;28;20217;-76
2022/06/25 09:58:57;;;;;;;12.52;7.05;;;13.80;99.90;;;;;;5043627;28;20182;-77
2022/06/25 10:01:32;;;;;;;11.82;7.00;;;13.70;99.90;;;;;;5034954;28;20202;-77
2022/06/25 10:04:05;;;;;;;13.48;6.63;;;13.70;99.90;;;;;;5039916;28;20186;-76
2022/06/25 10:06:38;;;;;;;12.32;6.72;;;13.60;99.90;;;;;;5042631;28;20561;-77
2022/06/25 10:09:09;;;;;;;10.68;6.70;;;13.60;99.90;;;;;;5041271;28;20197;-77
2022/06/25 10:11:40;;;;;;;11.75;6.28;;;13.50;99.90;;;;;;5043788;28;20186;-77
2022/06/25 10:14:11;;;;;;;11.38;6.28;;;13.50;99.90;;;;;;5038388;28;20196;-77
2022/06/25 10:16:45;;;;;;;11.15;6.35;;;13.30;99.90;;;;;;5048697;28;20275;-77
2022/06/25 10:19:19;;;;;;;9.48;6.03;;;13.30;99.90;;;;;;5047839;28;20198;-77
2022/06/25 10:21:50;;;;;;;8.30;5.63;;;13.20;99.90;;;;;;5049385;28;20632;-76
2022/06/25 10:24:21;;;;;;;10.57;5.68;;;13.10;99.90;;;;;;5041700;28;20191;-77
2022/06/25 10:26:52;;;;;;;8.82;5.63;;;13.00;99.90;;;;;;5043985;28;20190;-77
2022/06/25 10:29:31;;;;;;;9.82;6.10;;;12.90;99.90;;;;;;5045984;28;20599;-77
2022/06/25 10:32:20;;;;;;;9.65;5.80;;;13.00;99.90;;;;;;5051734;28;20525;-77
2022/06/25 10:34:58;;;;;;;10.68;5.80;;;13.00;99.90;;;;;;5041022;28;20743;-77
2022/06/25 10:37:29;;;;;;;9.65;5.45;;;13.00;99.90;;;;;;5044507;28;20229;-77
2022/06/25 10:40:00;;;;;;;9.88;5.97;;;13.00;99.90;;;;;;5048852;28;20660;-78
2022/06/25 10:45:56;;;;;;;9.77;5.80;;;12.90;99.90;;;;;;5042900;28;20221;-77
2022/06/25 10:48:31;;;;;;;10.88;6.35;;;12.80;99.90;;;;;;5056701;28;20197;-77
2022/06/25 10:51:02;;;;;;;8.52;5.82;;;12.80;99.90;;;;;;5056784;28;20200;-77
2022/06/25 10:53:33;;;;;;;10.60;6.68;;;12.80;99.90;;;;;;5056669;28;20197;-77
2022/06/25 10:56:27;;;;;;;11.43;6.40;;;12.70;99.90;;;;;;5056430;28;20232;-78
2022/06/25 10:58:58;;;;;;;12.15;6.22;;;12.70;99.90;;;;;;5043203;28;20194;-77
2022/06/25 11:01:34;;;;;;;10.63;5.88;;;12.70;99.90;;;;;;5036651;28;20229;-77
2022/06/25 11:04:15;;;;;;;11.40;5.88;;;12.70;99.90;;;;;;5036614;28;20196;-76
2022/06/25 11:06:46;;;;;;;12.25;6.45;;;12.70;99.90;;;;;;5036555;28;20201;-76
2022/06/25 11:09:20;;;;;;;11.35;6.35;;;12.60;99.90;;;;;;5036650;28;20190;-76
2022/06/25 11:11:51;;;;;;;11.68;6.25;;;12.60;99.90;;;;;;5036318;28;20187;-77
2022/06/25 11:14:24;;;;;;;11.23;7.07;;;12.60;99.90;;;;;;5036326;28;20190;-77
2022/06/25 11:16:56;;;;;;;12.07;7.22;;;12.50;99.90;;;;;;5036255;28;20283;-77
2022/06/25 11:19:29;;;;;;;12.40;7.20;;;12.50;99.90;;;;;;5036271;28;20222;-77
2022/06/25 11:22:02;;;;;;;12.50;7.30;;;12.50;99.90;;;;;;5038929;28;20194;-77
2022/06/25 11:24:34;;;;;;;14.13;7.10;;;12.50;99.90;;;;;;5044246;28;20638;-77
2022/06/25 11:29:53;;;;;;;11.65;6.75;;;12.30;99.90;;;;;;5056239;28;20340;-76
2022/06/25 11:32:25;;;;;;;13.40;7.32;;;12.10;99.90;;;;;;5034664;28;20198;-77
2022/06/25 11:34:58;;;;;;;11.45;7.68;;;12.00;99.90;;;;;;5041330;28;20693;-77
2022/06/25 11:37:31;;;;;;;15.65;8.25;;;11.90;99.90;;;;;;5055669;28;20240;-77
2022/06/25 11:40:02;;;;;;;14.75;7.93;;;11.90;99.90;;;;;;5046143;28;20197;-77
2022/06/25 11:42:36;;;;;;;15.02;8.65;;;12.00;99.90;;;;;;5035877;28;20222;-77
2022/06/25 11:45:08;;;;;;;16.65;8.57;;;11.90;99.90;;;;;;5035920;28;20190;-78
2022/06/25 11:47:39;;;;;;;14.77;8.32;;;11.90;99.90;;;;;;5035743;28;20636;-77
2022/06/25 11:50:15;;;;;;;13.45;8.10;;;11.80;99.90;;;;;;5035803;28;20292;-79
2022/06/25 11:52:47;;;;;;;13.93;8.32;;;11.80;99.90;;;;;;5049744;28;20266;-77
2022/06/25 11:55:18;;;;;;;13.73;8.18;;;11.80;99.90;;;;;;5051591;28;20232;-77
2022/06/25 11:57:49;;;;;;;12.60;7.85;;;11.90;99.90;;;;;;5032988;28;20563;-78
2022/06/25 12:00:20;;;;;;;13.55;7.93;;;11.90;99.90;;;;;;5035748;28;20206;-76
2022/06/25 12:03:02;;;;;;;12.30;7.20;;;12.00;99.90;;;;;;5035574;28;20649;-77
2022/06/25 12:05:36;;;;;;;14.52;7.57;;;12.00;99.90;;;;;;5035499;28;20209;-77
2022/06/25 12:08:09;;;;;;;12.02;7.40;;;12.00;99.90;;;;;;5035202;28;20213;-77
2022/06/25 12:10:42;;;;;;;11.55;7.00;;;11.90;99.90;;;;;;5035357;28;20277;-78
2022/06/25 12:13:15;;;;;;;10.55;7.05;;;11.90;99.90;;;;;;5035303;28;20195;-77
2022/06/25 12:15:46;;;;;;;11.68;7.07;;;11.90;99.90;;;;;;5035078;28;20261;-77
2022/06/25 12:18:17;;;;;;;12.60;7.00;;;11.90;99.90;;;;;;5035215;28;20201;-77
2022/06/25 12:20:59;;;;;;;12.02;6.93;;;11.80;99.90;;;;;;5039010;28;20185;-77
2022/06/25 12:23:29;;;;;;;11.95;6.78;;;11.90;99.90;;;;;;5043777;28;20390;-77
2022/06/25 12:26:00;;;;;;;12.52;6.97;;;11.80;99.90;;;;;;5041712;28;20197;-77
2022/06/25 12:28:40;;;;;;;11.27;7.03;;;11.80;99.90;;;;;;5039759;28;20225;-77
2022/06/25 12:31:18;;;;;;;12.40;7.20;;;11.80;99.90;;;;;;5038623;28;20694;-77
2022/06/25 12:33:53;;;;;;;11.73;7.00;;;11.80;99.90;;;;;;5049984;28;20272;-77
2022/06/25 12:36:28;;;;;;;11.75;6.97;;;11.80;99.90;;;;;;5047651;28;20240;-77
2022/06/25 12:38:58;;;;;;;12.25;7.15;;;11.80;99.90;;;;;;5052951;28;20200;-77
2022/06/25 12:41:49;;;;;;;11.93;6.85;;;11.70;99.90;;;;;;5034734;28;20193;-77
2022/06/25 12:44:20;;;;;;;11.88;7.13;;;11.70;99.90;;;;;;5034759;28;20233;-77
2022/06/25 12:47:03;;;;;;;11.55;7.35;;;11.70;99.90;;;;;;5044340;28;20676;-77
2022/06/25 12:49:48;;;;;;;13.25;7.35;;;11.70;99.90;;;;;;5054605;28;20239;-76
2022/06/25 12:52:22;;;;;;;10.43;7.47;;;11.70;99.90;;;;;;5054262;28;20680;-77
2022/06/25 12:54:54;;;;;;;13.05;7.65;;;11.70;99.90;;;;;;5054418;28;20201;-77
2022/06/25 12:57:29;;;;;;;12.65;7.68;;;11.70;99.90;;;;;;5054296;28;20606;-77
2022/06/25 13:00:01;;;;;;;14.73;7.55;;;11.70;99.90;;;;;;5054311;28;20553;-77
2022/06/25 13:02:32;;;;;;;13.93;7.47;;;11.70;99.90;;;;;;5054316;28;20216;-76
2022/06/25 13:05:02;;;;;;;14.40;8.32;;;11.70;99.90;;;;;;5054281;28;20200;-76
2022/06/25 13:07:35;;;;;;;13.90;7.55;;;11.60;99.90;;;;;;5054032;28;20649;-77
2022/06/25 13:10:06;;;;;;;12.32;7.30;;;11.60;99.90;;;;;;5034199;28;20209;-78
2022/06/25 13:12:36;;;;;;;13.15;8.10;;;11.60;99.90;;;;;;5034341;28;20195;-77
2022/06/25 13:15:08;;;;;;;12.43;8.18;;;11.50;99.90;;;;;;5034069;28;20201;-76
2022/06/25 13:17:39;;;;;;;16.52;9.13;;;11.50;99.90;;;;;;5034031;28;20233;-77
2022/06/25 13:20:11;;;;;;;15.73;8.88;;;11.50;99.90;;;;;;5033872;28;20253;-77
2022/06/25 13:22:44;;;;;;;14.90;8.80;;;11.40;99.90;;;;;;5034320;28;20547;-78